Time;durP1;ratioP1;P1;durP2;ratioP2;P2;SDS_P1;SDS_P2;PMS_P1;PMS_P2;Temp;Humidity;BMP_temperature;BMP_pressure;BME280_temperature;BME280_humidity;BME280_pressure;Samples;Min_cycle;Max_cycle;Signal;HPM_P1;HPM_P2
2021/12/31 00:01:47;;;;;;;27.20;17.02;;;;;;;2.93;51.82;102227.71;1754408;80;20994;-52
2021/12/31 00:04:14;;;;;;;28.92;17.52;;;;;;;2.96;51.87;102236.83;1763884;80;21006;-53
2021/12/31 00:06:44;;;;;;;30.32;19.02;;;;;;;2.97;51.82;102230.84;1749497;80;21041;-52
2021/12/31 00:09:09;;;;;;;29.60;19.10;;;;;;;3.00;51.84;102242.94;1748431;80;21045;-52
2021/12/31 00:11:35;;;;;;;30.32;19.02;;;;;;;2.99;51.73;102244.63;1750675;80;21041;-51
2021/12/31 00:14:02;;;;;;;34.65;20.62;;;;;;;2.99;51.68;102248.48;1761695;80;21502;-53
2021/12/31 00:16:29;;;;;;;35.10;21.93;;;;;;;3.01;51.77;102245.98;1751262;80;21501;-51
2021/12/31 00:18:55;;;;;;;40.50;24.15;;;;;;;3.02;51.81;102238.71;1752276;80;21029;-52
2021/12/31 00:21:22;;;;;;;38.17;24.18;;;;;;;3.06;51.72;102233.72;1747945;80;20963;-52
2021/12/31 00:23:48;;;;;;;39.43;23.23;;;;;;;3.02;51.58;102229.31;1755174;80;21061;-52
2021/12/31 00:26:15;;;;;;;38.00;23.02;;;;;;;3.03;51.73;102234.89;1755974;80;21014;-51
2021/12/31 00:28:41;;;;;;;36.68;22.58;;;;;;;3.04;51.74;102225.09;1763752;80;20982;-51
2021/12/31 00:31:08;;;;;;;39.05;22.93;;;;;;;3.08;51.69;102221.79;1760674;80;20962;-52
2021/12/31 00:33:34;;;;;;;38.83;23.15;;;;;;;3.11;51.68;102213.30;1754021;80;21026;-52
2021/12/31 00:36:01;;;;;;;36.98;22.52;;;;;;;3.13;51.82;102215.52;1764674;80;21320;-52
2021/12/31 00:38:27;;;;;;;37.80;21.62;;;;;;;3.14;51.88;102212.98;1760128;81;21451;-52
2021/12/31 00:40:53;;;;;;;35.48;20.62;;;;;;;3.16;51.83;102217.76;1740710;80;21551;-52
2021/12/31 00:43:22;;;;;;;35.92;22.20;;;;;;;3.18;51.84;102218.67;1759278;80;21077;-52
2021/12/31 00:45:48;;;;;;;33.55;22.07;;;;;;;3.21;51.81;102215.34;1755462;80;20987;-52
2021/12/31 00:48:15;;;;;;;33.25;19.60;;;;;;;3.21;51.93;102211.03;1774921;80;21002;-52
2021/12/31 00:50:43;;;;;;;31.73;21.05;;;;;;;3.26;51.86;102196.63;1753866;80;22189;-52
2021/12/31 00:53:09;;;;;;;31.97;20.12;;;;;;;3.29;51.79;102196.74;1759290;80;21077;-51
2021/12/31 00:55:37;;;;;;;31.42;19.80;;;;;;;3.32;51.67;102196.37;1754536;80;21030;-52
2021/12/31 00:58:05;;;;;;;29.40;18.85;;;;;;;3.34;51.63;102196.01;1748530;80;21022;-52
2021/12/31 01:00:32;;;;;;;31.90;19.27;;;;;;;3.37;51.59;102197.38;1764492;80;21057;-51
2021/12/31 01:02:59;;;;;;;28.90;18.98;;;;;;;3.39;51.73;102204.72;1745953;80;21081;-52
2021/12/31 01:05:25;;;;;;;28.80;19.67;;;;;;;3.39;51.68;102191.86;1748714;80;21034;-52
2021/12/31 01:07:52;;;;;;;27.58;18.32;;;;;;;3.39;51.54;102187.59;1758338;80;21357;-52
2021/12/31 01:10:19;;;;;;;26.70;17.85;;;;;;;3.42;51.46;102180.39;1751605;80;21045;-52
2021/12/31 01:12:47;;;;;;;25.95;17.80;;;;;;;3.46;51.44;102184.80;1760256;80;21038;-51
2021/12/31 01:15:33;;;;;;;27.87;16.87;;;;;;;3.48;51.30;102161.27;1770207;80;21086;-52
2021/12/31 01:20:17;;;;;;;30.05;18.57;;;;;;;3.49;51.16;102168.14;1769980;80;21045;-52
2021/12/31 01:22:43;;;;;;;28.52;18.12;;;;;;;3.49;51.22;102157.84;1757668;80;20986;-52
2021/12/31 01:25:10;;;;;;;31.17;18.45;;;;;;;3.50;51.18;102154.05;1759929;81;21038;-51
2021/12/31 01:30:10;;;;;;;28.67;17.57;;;;;;;3.55;51.37;102152.88;1679738;85;21018;-52
2021/12/31 01:32:38;;;;;;;27.48;18.02;;;;;;;3.58;51.20;102152.98;1668023;84;21572;-52
2021/12/31 01:35:05;;;;;;;28.20;18.40;;;;;;;3.59;51.29;102165.00;1663169;85;21034;-52
2021/12/31 01:37:31;;;;;;;29.10;18.15;;;;;;;3.60;51.21;102171.91;1664861;85;20987;-51
2021/12/31 01:39:58;;;;;;;28.70;18.15;;;;;;;3.63;51.16;102168.12;1661809;84;21479;-52
2021/12/31 01:44:59;;;;;;;26.33;17.87;;;;;;;3.67;51.12;102164.84;1658656;86;21105;-52
2021/12/31 01:47:34;;;;;;;26.80;17.37;;;;;;;3.69;51.05;102161.89;1654328;86;21002;-52
2021/12/31 01:49:56;;;;;;;29.32;19.15;;;;;;;3.61;51.25;102166.80;1658594;86;21562;-52
2021/12/31 01:52:22;;;;;;;26.85;18.65;;;;;;;3.61;51.28;102155.22;1662447;86;21062;-52
2021/12/31 01:54:49;;;;;;;31.97;20.05;;;;;;;3.62;51.33;102144.52;1662568;86;21105;-52
2021/12/31 01:57:15;;;;;;;31.40;19.17;;;;;;;3.64;51.38;102144.14;1659086;85;21125;-52
2021/12/31 01:59:42;;;;;;;29.50;18.42;;;;;;;3.66;51.39;102156.64;1663012;86;21018;-52
2021/12/31 02:02:09;;;;;;;27.02;17.40;;;;;;;3.67;51.15;102145.53;1662876;86;21319;-51
2021/12/31 02:04:38;;;;;;;29.23;18.40;;;;;;;3.69;51.10;102154.17;1662406;86;21050;-52
2021/12/31 02:07:05;;;;;;;28.27;17.95;;;;;;;3.68;51.03;102151.13;1662587;86;21509;-52
2021/12/31 02:09:37;;;;;;;28.38;18.10;;;;;;;3.69;51.05;102144.72;1662456;86;21061;-51
2021/12/31 02:12:01;;;;;;;28.77;17.92;;;;;;;3.71;50.94;102148.20;1658119;86;21041;-51
2021/12/31 02:14:30;;;;;;;24.70;17.32;;;;;;;3.74;50.82;102152.17;1662350;86;21073;-51
2021/12/31 02:16:57;;;;;;;26.50;17.87;;;;;;;3.75;50.91;102152.61;1662656;86;21526;-52
2021/12/31 02:19:27;;;;;;;28.17;18.40;;;;;;;3.75;50.85;102144.05;1662750;86;21486;-52
2021/12/31 02:21:57;;;;;;;28.47;18.15;;;;;;;3.77;50.99;102144.95;1650882;86;21062;-52
2021/12/31 02:24:24;;;;;;;28.77;18.23;;;;;;;3.79;50.93;102147.16;1660936;86;21112;-51
2021/12/31 02:26:51;;;;;;;32.28;20.08;;;;;;;3.79;50.86;102143.30;1683866;83;21085;-51
2021/12/31 02:29:19;;;;;;;28.50;18.40;;;;;;;3.79;51.00;102143.30;1723997;83;21033;-52
2021/12/31 02:31:46;;;;;;;27.90;18.73;;;;;;;3.80;50.99;102137.30;1725721;83;21049;-51
2021/12/31 02:34:12;;;;;;;32.10;18.73;;;;;;;3.83;51.04;102137.40;1728482;80;20961;-52
2021/12/31 02:36:39;;;;;;;27.58;19.20;;;;;;;3.83;51.15;102137.40;1746020;80;21050;-51
2021/12/31 02:39:06;;;;;;;27.58;18.60;;;;;;;3.84;51.13;102139.13;1766056;80;21092;-52
2021/12/31 02:41:32;;;;;;;30.02;19.65;;;;;;;3.85;51.04;102133.16;1752641;80;21013;-52
2021/12/31 02:43:58;;;;;;;29.63;19.37;;;;;;;3.89;50.94;102123.40;1751646;80;21019;-52
2021/12/31 02:46:25;;;;;;;32.55;20.08;;;;;;;3.88;51.08;102119.06;1752102;80;20997;-52
2021/12/31 02:48:56;;;;;;;27.45;17.60;;;;;;;3.90;51.02;102118.69;1774933;80;21010;-52
2021/12/31 02:51:19;;;;;;;29.30;19.20;;;;;;;3.90;51.06;102114.42;1748618;80;21541;-52
2021/12/31 02:53:46;;;;;;;31.40;19.40;;;;;;;3.90;51.12;102100.67;1759028;80;21471;-52
2021/12/31 02:56:16;;;;;;;30.17;19.98;;;;;;;3.91;51.10;102110.16;1731797;81;21498;-52
2021/12/31 02:58:43;;;;;;;34.00;20.08;;;;;;;3.91;51.17;102124.31;1745240;81;21017;-52
2021/12/31 03:01:09;;;;;;;30.20;19.35;;;;;;;3.92;51.13;102120.89;1741528;81;21054;-52
2021/12/31 03:03:37;;;;;;;27.58;18.62;;;;;;;3.93;51.17;102124.82;1753934;80;21051;-52
2021/12/31 03:06:04;;;;;;;30.80;19.32;;;;;;;4.00;51.06;102118.98;1751801;81;20991;-52
2021/12/31 03:08:33;;;;;;;31.33;20.70;;;;;;;4.03;51.12;102115.63;1754747;80;20987;-51
2021/12/31 03:11:02;;;;;;;31.02;20.00;;;;;;;4.04;51.17;102117.34;1759208;80;21013;-52
2021/12/31 03:13:29;;;;;;;28.90;18.90;;;;;;;4.04;51.12;102110.91;1750700;80;21078;-52
2021/12/31 03:15:59;;;;;;;29.60;18.27;;;;;;;4.06;51.14;102113.11;1760580;80;21057;-52
2021/12/31 03:18:26;;;;;;;30.50;19.60;;;;;;;4.08;51.09;102098.59;1769721;80;21502;-52
2021/12/31 03:21:08;;;;;;;30.72;19.17;;;;;;;4.09;51.08;102092.59;1777124;80;21486;-51
2021/12/31 03:23:30;;;;;;;34.27;21.55;;;;;;;4.10;51.09;102101.64;1761070;80;21007;-52
2021/12/31 03:25:57;;;;;;;27.77;19.30;;;;;;;4.10;51.06;102107.23;1761280;80;20966;-52
2021/12/31 03:28:25;;;;;;;33.55;20.50;;;;;;;4.11;51.02;102111.54;1750457;81;20998;-52
2021/12/31 03:30:52;;;;;;;31.15;20.65;;;;;;;4.12;50.98;102111.56;1765345;80;21077;-51
2021/12/31 03:33:19;;;;;;;29.55;18.45;;;;;;;4.15;51.01;102108.21;1758026;80;21723;-52
2021/12/31 03:35:45;;;;;;;31.52;20.72;;;;;;;4.16;50.97;102102.23;1751512;80;21081;-52
2021/12/31 03:38:12;;;;;;;28.27;18.87;;;;;;;4.16;51.00;102107.39;1759094;80;21027;-51
2021/12/31 03:40:40;;;;;;;34.73;20.43;;;;;;;4.18;50.87;102108.30;1767985;80;21011;-52
2021/12/31 03:43:08;;;;;;;33.20;19.92;;;;;;;4.20;50.92;102105.75;1758458;80;21033;-51
2021/12/31 03:45:36;;;;;;;28.15;19.67;;;;;;;4.19;50.89;102115.59;1756487;80;21070;-52
2021/12/31 03:48:04;;;;;;;31.65;20.55;;;;;;;4.20;50.84;102114.37;1755967;80;20967;-53
2021/12/31 03:50:31;;;;;;;33.20;21.07;;;;;;;4.20;50.91;102120.80;1762551;80;21037;-51
2021/12/31 03:52:57;;;;;;;33.30;21.02;;;;;;;4.22;50.91;102112.70;1761577;80;21058;-52
2021/12/31 03:55:24;;;;;;;31.97;20.57;;;;;;;4.22;50.79;102112.70;1757834;80;21003;-51
2021/12/31 03:57:50;;;;;;;29.63;18.90;;;;;;;4.22;50.73;102093.38;1759618;80;21038;-52
2021/12/31 04:00:17;;;;;;;33.67;20.57;;;;;;;4.22;50.77;102094.66;1758526;80;21104;-52
2021/12/31 04:02:43;;;;;;;36.50;22.05;;;;;;;4.22;50.80;102104.97;1758803;80;21038;-52
2021/12/31 04:05:10;;;;;;;36.13;22.27;;;;;;;4.21;50.88;102105.78;1777524;80;21042;-52
2021/12/31 04:07:36;;;;;;;35.05;21.02;;;;;;;4.21;50.93;102105.78;1751867;80;21034;-52
2021/12/31 04:10:04;;;;;;;31.65;20.52;;;;;;;4.23;51.02;102118.29;1763099;80;21005;-52
2021/12/31 04:12:31;;;;;;;33.45;20.25;;;;;;;4.23;51.00;102116.12;1761042;81;21034;-51
2021/12/31 04:14:58;;;;;;;32.50;20.08;;;;;;;4.23;50.98;102117.00;1772374;80;20995;-51
2021/12/31 04:17:24;;;;;;;33.13;22.05;;;;;;;4.23;50.94;102114.42;1755463;80;21110;-52
2021/12/31 04:19:55;;;;;;;32.60;20.97;;;;;;;4.24;50.92;102116.19;1758609;80;21045;-51
2021/12/31 04:22:24;;;;;;;31.82;20.17;;;;;;;4.23;51.02;102117.00;1757769;80;21554;-52
2021/12/31 04:27:16;;;;;;;32.55;20.80;;;;;;;4.25;51.13;102101.58;1757280;80;21040;-52
2021/12/31 04:29:50;;;;;;;34.40;21.37;;;;;;;4.23;51.15;102107.98;1747996;80;21041;-51
2021/12/31 04:32:11;;;;;;;35.20;21.70;;;;;;;4.23;51.17;102114.42;1752211;80;21049;-52
2021/12/31 04:34:37;;;;;;;35.73;21.33;;;;;;;4.24;51.25;102123.03;1748609;80;21033;-52
2021/12/31 04:37:04;;;;;;;33.28;21.70;;;;;;;4.25;51.28;102116.62;1763823;80;21014;-52
2021/12/31 04:39:31;;;;;;;31.45;21.62;;;;;;;4.26;51.25;102120.96;1763574;80;21058;-52
2021/12/31 04:41:59;;;;;;;31.65;20.70;;;;;;;4.29;51.28;102111.13;1754785;80;21046;-52
2021/12/31 04:44:27;;;;;;;30.95;20.32;;;;;;;4.32;51.25;102113.38;1758160;80;21045;-53
2021/12/31 04:46:53;;;;;;;32.55;20.25;;;;;;;4.34;51.17;102110.42;1751943;80;20998;-52
2021/12/31 04:49:20;;;;;;;32.45;19.92;;;;;;;4.36;51.08;102113.91;1753087;80;21057;-52
2021/12/31 04:51:46;;;;;;;31.95;20.65;;;;;;;4.35;51.03;102103.13;1764723;80;21014;-52
2021/12/31 04:54:16;;;;;;;31.68;20.12;;;;;;;4.33;51.17;102100.94;1740064;80;21498;-52
2021/12/31 04:56:43;;;;;;;32.13;19.65;;;;;;;4.35;51.26;102101.00;1768074;80;21021;-52
2021/12/31 04:59:11;;;;;;;29.85;20.45;;;;;;;4.37;51.30;102099.33;1746210;80;21045;-52
2021/12/31 05:01:38;;;;;;;30.70;20.45;;;;;;;4.34;51.41;102104.39;1752562;80;21038;-52
2021/12/31 05:04:05;;;;;;;36.17;21.10;;;;;;;4.37;51.38;102111.77;1761817;80;21577;-52
2021/12/31 05:06:32;;;;;;;32.25;20.02;;;;;;;4.37;51.48;102102.75;1764760;80;21576;-53
2021/12/31 05:08:59;;;;;;;31.20;19.37;;;;;;;4.44;51.37;102102.09;1765849;80;21069;-52
2021/12/31 05:11:26;;;;;;;30.85;19.02;;;;;;;4.43;51.43;102089.17;1766430;80;21029;-52
2021/12/31 05:13:52;;;;;;;30.25;18.75;;;;;;;4.44;51.50;102091.78;1762661;80;21015;-52
2021/12/31 05:16:19;;;;;;;33.08;21.37;;;;;;;4.46;51.37;102078.51;1754016;80;21057;-53
2021/12/31 05:18:47;;;;;;;31.35;19.32;;;;;;;4.46;51.29;102069.90;1764794;80;21049;-52
2021/12/31 05:21:13;;;;;;;32.30;20.43;;;;;;;4.48;51.21;102074.67;1754921;80;21002;-52
2021/12/31 05:23:40;;;;;;;30.80;19.05;;;;;;;4.49;51.13;102077.28;1749292;80;20963;-52
2021/12/31 05:26:06;;;;;;;32.88;20.12;;;;;;;4.48;51.27;102097.86;1751129;80;21053;-52
2021/12/31 05:28:34;;;;;;;27.55;18.67;;;;;;;4.49;51.26;102087.59;1750579;81;21031;-52
2021/12/31 05:31:01;;;;;;;26.45;18.17;;;;;;;4.47;51.23;102085.39;1754417;80;21073;-52
2021/12/31 05:33:28;;;;;;;26.27;16.85;;;;;;;4.49;51.19;102088.88;1756286;80;21097;-52
2021/12/31 05:35:56;;;;;;;26.60;17.77;;;;;;;4.53;51.21;102102.73;1752058;81;21045;-52
2021/12/31 05:38:24;;;;;;;25.08;17.15;;;;;;;4.53;51.16;102103.61;1752996;80;21035;-52
2021/12/31 05:40:51;;;;;;;22.70;16.25;;;;;;;4.54;51.19;102091.56;1753247;81;20986;-52
2021/12/31 05:43:18;;;;;;;22.55;16.50;;;;;;;4.53;51.28;102085.56;1755910;80;21061;-52
2021/12/31 05:45:44;;;;;;;24.90;16.82;;;;;;;4.51;51.19;102085.95;1770357;80;20971;-52
2021/12/31 05:48:11;;;;;;;23.75;16.23;;;;;;;4.33;51.74;102090.63;1753998;80;21066;-51
2021/12/31 05:50:38;;;;;;;22.95;16.65;;;;;;;4.30;51.84;102085.42;1753560;81;21023;-52
2021/12/31 05:53:05;;;;;;;23.07;16.65;;;;;;;4.30;51.92;102094.84;1749896;80;21033;-52
2021/12/31 05:55:31;;;;;;;26.55;18.37;;;;;;;4.30;52.01;102093.15;1750726;80;20996;-53
2021/12/31 05:57:58;;;;;;;30.62;21.35;;;;;;;4.30;52.01;102090.98;1758532;80;21038;-52
2021/12/31 06:00:26;;;;;;;30.72;20.48;;;;;;;4.30;51.88;102093.15;1754832;81;21546;-52
2021/12/31 06:02:52;;;;;;;26.68;18.62;;;;;;;4.29;52.00;102093.97;1755616;80;21530;-52
2021/12/31 06:05:19;;;;;;;23.62;17.75;;;;;;;4.29;52.08;102093.97;1766091;80;21002;-53
2021/12/31 06:07:46;;;;;;;24.52;16.48;;;;;;;4.29;52.14;102098.23;1765960;81;21529;-52
2021/12/31 06:10:12;;;;;;;24.37;16.85;;;;;;;4.28;52.32;102108.11;1766905;80;21042;-52
2021/12/31 06:12:41;;;;;;;23.95;17.52;;;;;;;4.27;52.43;102099.50;1757498;80;21580;-52
2021/12/31 06:15:09;;;;;;;24.10;16.27;;;;;;;4.28;52.48;102107.70;1763395;80;21049;-52
2021/12/31 06:17:37;;;;;;;25.25;17.55;;;;;;;4.31;52.66;102104.34;1756971;80;21117;-52
2021/12/31 06:20:05;;;;;;;26.20;17.92;;;;;;;4.32;52.57;102097.05;1753126;80;21003;-52
2021/12/31 06:22:32;;;;;;;30.62;20.37;;;;;;;4.32;52.66;102097.05;1759070;80;21564;-52
2021/12/31 06:24:59;;;;;;;29.82;19.85;;;;;;;4.35;52.71;102091.54;1765328;80;21539;-52
2021/12/31 06:27:26;;;;;;;27.27;18.50;;;;;;;4.37;52.73;102083.88;1771916;80;21077;-52
2021/12/31 06:29:52;;;;;;;27.27;19.17;;;;;;;4.37;52.78;102093.73;1779798;80;21574;-52
2021/12/31 06:32:19;;;;;;;30.43;19.57;;;;;;;4.38;52.90;102100.65;1758067;80;21550;-52
2021/12/31 06:34:46;;;;;;;28.40;18.90;;;;;;;4.40;53.08;102102.84;1764909;80;21491;-52
2021/12/31 06:37:13;;;;;;;32.65;20.25;;;;;;;4.42;53.19;102098.59;1761379;80;21070;-54
2021/12/31 06:39:41;;;;;;;30.82;18.80;;;;;;;4.43;53.28;102100.33;1754781;81;21058;-52
2021/12/31 06:42:09;;;;;;;29.98;18.00;;;;;;;4.47;53.39;102096.14;1759314;80;21002;-52
2021/12/31 06:44:38;;;;;;;27.05;18.40;;;;;;;4.50;53.34;102077.75;1759975;80;21022;-52
2021/12/31 06:47:05;;;;;;;33.45;21.20;;;;;;;4.49;53.28;102079.85;1750734;81;21053;-52
2021/12/31 06:49:33;;;;;;;33.08;19.73;;;;;;;4.48;53.46;102072.97;1724760;81;21049;-52
2021/12/31 06:51:59;;;;;;;38.58;25.92;;;;;;;4.49;53.48;102087.59;1732384;81;21046;-52
2021/12/31 06:54:25;;;;;;;36.33;24.15;;;;;;;4.49;53.53;102099.19;1745829;80;21003;-52
2021/12/31 06:56:52;;;;;;;34.80;22.37;;;;;;;4.50;53.74;102097.08;1746630;80;21042;-52
2021/12/31 06:59:19;;;;;;;32.73;19.57;;;;;;;4.50;53.79;102079.03;1736318;80;21113;-52
2021/12/31 07:01:46;;;;;;;31.20;21.17;;;;;;;4.51;53.85;102080.80;1733691;81;21190;-52
2021/12/31 07:04:12;;;;;;;39.27;26.02;;;;;;;4.51;53.97;102084.66;1737404;80;21038;-52
2021/12/31 07:06:38;;;;;;;38.75;23.85;;;;;;;4.54;53.95;102087.29;1723161;81;21010;-52
2021/12/31 07:09:05;;;;;;;35.50;21.62;;;;;;;4.54;54.08;102080.84;1738858;80;21021;-52
2021/12/31 07:11:31;;;;;;;31.50;19.10;;;;;;;4.54;54.14;102079.56;1750823;80;21049;-52
2021/12/31 07:13:58;;;;;;;29.42;19.42;;;;;;;4.57;54.17;102084.80;1754261;81;21033;-53
2021/12/31 07:16:24;;;;;;;33.30;20.27;;;;;;;4.60;54.17;102092.59;1743245;81;21001;-52
2021/12/31 07:18:51;;;;;;;33.13;20.45;;;;;;;4.60;54.11;102084.86;1716463;81;21042;-52
2021/12/31 07:21:18;;;;;;;31.57;19.55;;;;;;;4.60;54.16;102083.57;1748358;81;21065;-52
2021/12/31 07:23:45;;;;;;;30.88;19.57;;;;;;;4.61;54.21;102075.02;1730656;81;21011;-52
2021/12/31 07:26:11;;;;;;;33.42;20.17;;;;;;;4.59;54.19;102071.53;1729845;81;21021;-52
2021/12/31 07:28:38;;;;;;;31.65;18.80;;;;;;;4.58;54.31;102068.48;1727970;82;21043;-52
2021/12/31 07:31:06;;;;;;;31.33;19.87;;;;;;;4.57;54.43;102073.20;1740140;81;21141;-52
2021/12/31 07:33:34;;;;;;;33.10;20.17;;;;;;;4.60;54.47;102080.98;1729048;82;21070;-52
2021/12/31 07:36:00;;;;;;;42.20;26.05;;;;;;;4.62;54.60;102080.61;1716558;82;20978;-52
2021/12/31 07:38:32;;;;;;;37.33;23.12;;;;;;;4.65;54.59;102081.11;1729319;81;21028;-52
2021/12/31 07:40:55;;;;;;;35.00;20.35;;;;;;;4.65;54.46;102087.14;1724206;82;21034;-53
2021/12/31 07:43:22;;;;;;;39.35;22.98;;;;;;;4.66;54.60;102088.87;1764892;80;21089;-52
2021/12/31 07:45:50;;;;;;;38.20;22.10;;;;;;;4.67;54.73;102084.18;1773164;80;21006;-52
2021/12/31 07:48:19;;;;;;;60.23;30.95;;;;;;;4.68;54.78;102088.48;1769957;80;20987;-52
2021/12/31 07:50:46;;;;;;;46.63;27.30;;;;;;;4.69;54.89;102088.95;1767148;80;21613;-53
2021/12/31 07:53:13;;;;;;;44.48;26.42;;;;;;;4.70;54.95;102093.26;1767205;80;21541;-53
2021/12/31 07:55:39;;;;;;;36.40;22.45;;;;;;;4.72;55.07;102094.57;1756867;80;20999;-52
2021/12/31 07:58:05;;;;;;;37.58;23.50;;;;;;;4.74;55.22;102092.48;1760570;80;21085;-52
2021/12/31 08:00:33;;;;;;;32.58;21.27;;;;;;;4.76;55.30;102090.81;1766484;80;21007;-52
2021/12/31 08:03:00;;;;;;;37.90;22.10;;;;;;;4.77;55.41;102088.70;1756543;80;20991;-52
2021/12/31 08:05:27;;;;;;;47.35;27.77;;;;;;;4.79;55.58;102092.19;1753453;80;21034;-52
2021/12/31 08:07:54;;;;;;;39.58;22.15;;;;;;;4.84;55.66;102091.86;1765266;80;21042;-52
2021/12/31 08:10:21;;;;;;;48.23;24.98;;;;;;;4.86;55.76;102089.34;1749684;80;21029;-53
2021/12/31 08:12:48;;;;;;;37.25;21.27;;;;;;;4.89;55.76;102073.91;1746749;80;21022;-52
2021/12/31 08:15:15;;;;;;;42.27;22.80;;;;;;;4.92;55.89;102079.16;1759422;80;21066;-52
2021/12/31 08:17:43;;;;;;;35.92;20.65;;;;;;;4.95;56.05;102069.77;1760503;80;21047;-54
2021/12/31 08:20:11;;;;;;;33.53;20.00;;;;;;;5.00;56.16;102063.84;1766226;80;21073;-52
2021/12/31 08:22:38;;;;;;;38.65;21.65;;;;;;;5.02;56.18;102068.20;1765043;80;21009;-53
2021/12/31 08:25:06;;;;;;;34.98;20.50;;;;;;;5.04;56.31;102069.52;1771842;80;21007;-53
2021/12/31 08:27:33;;;;;;;38.17;21.00;;;;;;;5.05;56.18;102060.95;1752095;80;20994;-52
2021/12/31 08:30:00;;;;;;;35.90;20.52;;;;;;;5.04;56.39;102054.03;1757851;80;20998;-53
2021/12/31 08:32:27;;;;;;;36.70;21.00;;;;;;;5.06;56.58;102054.94;1762451;80;20991;-53
2021/12/31 08:34:54;;;;;;;36.95;19.98;;;;;;;5.08;56.66;102058.42;1750759;80;21078;-54
2021/12/31 08:37:21;;;;;;;40.65;22.93;;;;;;;5.09;56.75;102061.47;1770756;80;21069;-53
2021/12/31 08:39:47;;;;;;;36.25;19.00;;;;;;;5.10;56.83;102056.74;1758329;80;21517;-52
2021/12/31 08:42:14;;;;;;;35.55;20.30;;;;;;;5.12;56.95;102044.34;1767938;80;21483;-52
2021/12/31 08:44:40;;;;;;;34.92;20.92;;;;;;;5.14;57.15;102041.77;1775333;80;21572;-53
2021/12/31 08:47:07;;;;;;;36.93;21.15;;;;;;;5.18;57.32;102031.97;1766570;80;22368;-52
2021/12/31 08:49:33;;;;;;;34.90;19.50;;;;;;;5.22;57.36;102023.45;1755119;80;21024;-53
2021/12/31 08:52:00;;;;;;;36.45;19.95;;;;;;;5.25;57.38;102018.36;1757217;80;21037;-53
2021/12/31 08:54:28;;;;;;;43.85;23.98;;;;;;;5.30;57.25;102018.02;1755850;80;21045;-52
2021/12/31 08:56:55;;;;;;;37.70;22.17;;;;;;;5.29;57.28;102016.30;1763528;80;21499;-53
2021/12/31 08:59:22;;;;;;;33.42;20.60;;;;;;;5.32;57.35;102025.37;1749895;80;21481;-52
2021/12/31 09:01:49;;;;;;;39.35;23.05;;;;;;;5.33;57.44;102037.45;1761270;80;21085;-53
2021/12/31 09:04:16;;;;;;;36.40;22.93;;;;;;;5.35;57.49;102047.38;1764173;80;20999;-53
2021/12/31 09:06:44;;;;;;;37.08;22.67;;;;;;;5.38;57.63;102037.13;1756690;80;21030;-53
2021/12/31 09:09:10;;;;;;;34.08;20.32;;;;;;;5.43;57.69;102060.02;1758779;80;21000;-53
2021/12/31 09:11:37;;;;;;;31.77;20.00;;;;;;;5.47;57.84;102056.66;1757217;81;21031;-53
2021/12/31 09:14:05;;;;;;;31.62;19.07;;;;;;;5.53;57.80;102043.86;1757009;80;21021;-53
2021/12/31 09:16:31;;;;;;;31.05;18.75;;;;;;;5.58;57.94;102045.72;1752787;80;21063;-52
2021/12/31 09:18:57;;;;;;;33.02;19.57;;;;;;;5.64;58.07;102051.41;1756999;80;21007;-53
2021/12/31 09:21:24;;;;;;;30.77;18.32;;;;;;;5.71;58.13;102048.07;1765088;80;21034;-53
2021/12/31 09:23:51;;;;;;;28.75;17.98;;;;;;;5.78;58.09;102034.45;1759397;80;21104;-53
2021/12/31 09:26:17;;;;;;;30.90;19.17;;;;;;;5.86;58.07;102031.61;1751816;80;21510;-53
2021/12/31 09:28:45;;;;;;;31.23;18.67;;;;;;;5.93;57.99;102024.42;1761465;80;21518;-54
2021/12/31 09:31:12;;;;;;;30.60;18.85;;;;;;;6.00;57.91;102017.20;1775386;80;21558;-53
2021/12/31 09:33:39;;;;;;;31.95;18.98;;;;;;;6.07;57.80;102016.89;1756083;80;21536;-53
2021/12/31 09:36:06;;;;;;;31.65;20.20;;;;;;;6.12;57.63;102015.27;1748689;80;21045;-54
2021/12/31 09:38:32;;;;;;;29.40;19.20;;;;;;;6.16;57.42;102012.73;1753557;80;21085;-53
2021/12/31 09:40:59;;;;;;;33.95;19.67;;;;;;;6.20;57.53;102005.48;1755335;80;21010;-53
2021/12/31 09:43:25;;;;;;;29.00;17.37;;;;;;;6.25;57.44;101997.38;1752663;80;21046;-53
2021/12/31 09:45:53;;;;;;;31.10;20.30;;;;;;;6.31;57.27;101983.67;1762306;80;21491;-52
2021/12/31 09:48:22;;;;;;;30.35;19.32;;;;;;;6.35;57.24;101972.12;1761786;80;21053;-52
2021/12/31 09:50:51;;;;;;;31.48;18.12;;;;;;;6.38;57.16;101955.37;1757586;80;21061;-53
2021/12/31 09:53:20;;;;;;;36.73;21.10;;;;;;;6.41;57.13;101951.94;1760647;80;21466;-53
2021/12/31 09:55:54;;;;;;;34.78;21.42;;;;;;;6.42;57.09;101946.81;1758963;80;21498;-53
2021/12/31 09:58:23;;;;;;;34.73;21.77;;;;;;;6.45;57.15;101951.16;1760191;80;20963;-53
2021/12/31 10:00:53;;;;;;;34.10;21.40;;;;;;;6.48;57.27;101941.73;1761769;80;21074;-52
2021/12/31 10:03:25;;;;;;;27.95;18.37;;;;;;;6.54;57.22;101943.09;1749524;80;21058;-53
2021/12/31 10:05:54;;;;;;;27.65;17.37;;;;;;;6.59;57.16;101947.89;1759380;80;20999;-53
2021/12/31 10:08:26;;;;;;;25.52;16.60;;;;;;;6.66;57.02;101955.76;1754531;80;20995;-53
2021/12/31 10:11:09;;;;;;;26.73;19.07;;;;;;;6.68;56.90;101948.89;1759281;81;21070;-53
2021/12/31 10:13:39;;;;;;;31.90;20.95;;;;;;;6.71;56.70;101951.08;1719003;83;21034;-52
2021/12/31 10:16:08;;;;;;;36.13;25.08;;;;;;;6.73;56.83;101948.50;1642707;86;21606;-52
2021/12/31 10:18:37;;;;;;;30.02;18.98;;;;;;;6.77;56.92;101953.74;1631206;87;21129;-53
2021/12/31 10:21:05;;;;;;;25.17;17.67;;;;;;;6.81;56.70;101946.46;1651717;86;21551;-52
2021/12/31 10:23:36;;;;;;;25.37;17.92;;;;;;;6.84;56.60;101946.94;1649272;86;21121;-53
2021/12/31 10:26:12;;;;;;;22.90;15.85;;;;;;;6.85;56.57;101930.12;1603876;88;21084;-52
2021/12/31 10:28:56;;;;;;;26.30;18.65;;;;;;;6.88;56.48;101918.95;1647618;86;21672;-53
2021/12/31 10:31:23;;;;;;;28.87;20.10;;;;;;;6.91;56.56;101916.38;1636278;86;21057;-53
2021/12/31 10:33:50;;;;;;;21.80;14.70;;;;;;;6.94;56.61;101917.73;1645631;86;21048;-54
2021/12/31 10:36:37;;;;;;;20.15;14.85;;;;;;;6.96;56.41;101917.32;1637123;86;21109;-52
2021/12/31 10:39:22;;;;;;;20.68;15.60;;;;;;;6.98;56.35;101910.44;1650156;86;21582;-53
2021/12/31 10:42:08;;;;;;;21.33;14.85;;;;;;;7.01;56.40;101905.28;1612962;88;21229;-53
2021/12/31 10:44:51;;;;;;;22.15;15.53;;;;;;;7.07;56.29;101906.64;1578046;89;21588;-53
2021/12/31 10:47:34;;;;;;;24.98;15.78;;;;;;;7.10;56.33;101895.05;1573211;90;21119;-53
2021/12/31 10:50:07;;;;;;;23.75;15.72;;;;;;;7.13;56.35;101887.33;1572871;89;21861;-53
2021/12/31 10:52:53;;;;;;;20.30;14.80;;;;;;;7.18;56.38;101884.34;1596175;88;21748;-53
2021/12/31 10:55:19;;;;;;;22.80;15.63;;;;;;;7.23;56.31;101881.38;1609298;88;21074;-53
2021/12/31 10:57:55;;;;;;;28.38;16.10;;;;;;;7.27;56.20;101878.81;1624769;88;21162;-53
2021/12/31 11:00:21;;;;;;;20.45;14.68;;;;;;;7.30;56.14;101879.27;1576394;89;21502;-53
2021/12/31 11:02:48;;;;;;;20.68;14.43;;;;;;;7.34;56.03;101884.92;1555688;90;21142;-53
2021/12/31 11:05:20;;;;;;;20.52;15.15;;;;;;;7.36;56.07;101888.39;1555975;90;21095;-53
2021/12/31 11:07:47;;;;;;;17.70;12.55;;;;;;;7.40;56.25;101892.74;1569546;90;21144;-53
2021/12/31 11:10:14;;;;;;;17.35;13.22;;;;;;;7.44;56.12;101881.56;1572287;89;21124;-53
2021/12/31 11:12:46;;;;;;;16.85;12.78;;;;;;;7.45;55.92;101893.67;1600895;86;21064;-53
2021/12/31 11:15:11;;;;;;;18.98;13.13;;;;;;;7.47;55.72;101891.08;1651884;86;21029;-53
2021/12/31 11:17:38;;;;;;;19.20;13.80;;;;;;;7.46;55.75;101869.48;1661294;85;21090;-54
2021/12/31 11:20:07;;;;;;;19.90;13.75;;;;;;;7.47;55.80;101862.18;1650819;85;21068;-54
2021/12/31 11:22:35;;;;;;;20.05;14.30;;;;;;;7.47;56.02;101858.30;1682024;83;21057;-52
2021/12/31 11:25:24;;;;;;;19.32;14.33;;;;;;;7.49;56.14;101852.70;1688430;82;21080;-53
2021/12/31 11:27:53;;;;;;;23.57;16.67;;;;;;;7.53;56.13;101847.98;1690235;84;21529;-52
2021/12/31 11:30:33;;;;;;;21.00;15.63;;;;;;;7.58;55.99;101845.02;1703409;83;21584;-53